sensor_id;sensor_type;location;lat;lon;timestamp;pressure;altitude;pressure_sealevel;temperature;humidity
62600;BME280;48671;48.922;2.346;2023-05-29T00:01:29;101593.66;;;20.79;46.70
62600;BME280;48671;48.922;2.346;2023-05-29T00:03:56;101573.25;;;20.69;46.79
62600;BME280;48671;48.922;2.346;2023-05-29T00:06:22;101600.53;;;20.82;46.64
62600;BME280;48671;48.922;2.346;2023-05-29T00:08:48;101591.34;;;20.75;46.83
62600;BME280;48671;48.922;2.346;2023-05-29T00:11:13;101588.47;;;20.65;47.06
62600;BME280;48671;48.922;2.346;2023-05-29T00:13:38;101598.28;;;20.63;46.37
62600;BME280;48671;48.922;2.346;2023-05-29T00:16:04;101597.34;;;20.64;46.75
62600;BME280;48671;48.922;2.346;2023-05-29T00:18:30;101598.19;;;20.65;46.93
62600;BME280;48671;48.922;2.346;2023-05-29T00:20:55;101589.19;;;20.54;46.99
62600;BME280;48671;48.922;2.346;2023-05-29T00:23:21;101602.41;;;20.54;47.13
62600;BME280;48671;48.922;2.346;2023-05-29T00:25:47;101606.19;;;20.50;47.31
62600;BME280;48671;48.922;2.346;2023-05-29T00:28:12;101609.03;;;20.47;47.29
62600;BME280;48671;48.922;2.346;2023-05-29T00:30:38;101612.91;;;20.42;47.20
62600;BME280;48671;48.922;2.346;2023-05-29T00:33:04;101613.31;;;20.35;46.74
62600;BME280;48671;48.922;2.346;2023-05-29T00:35:29;101617.75;;;20.35;47.09
62600;BME280;48671;48.922;2.346;2023-05-29T00:37:55;101600.69;;;20.26;47.96
62600;BME280;48671;48.922;2.346;2023-05-29T00:40:20;101622.47;;;20.30;47.77
62600;BME280;48671;48.922;2.346;2023-05-29T00:42:46;101596.47;;;20.24;47.57
62600;BME280;48671;48.922;2.346;2023-05-29T00:45:11;101598.25;;;20.23;47.97
62600;BME280;48671;48.922;2.346;2023-05-29T00:47:39;101602.63;;;20.24;47.40
62600;BME280;48671;48.922;2.346;2023-05-29T00:50:05;101608.53;;;20.28;47.33
62600;BME280;48671;48.922;2.346;2023-05-29T00:52:31;101597.53;;;20.21;47.75
62600;BME280;48671;48.922;2.346;2023-05-29T00:54:57;101597.41;;;20.23;47.14
62600;BME280;48671;48.922;2.346;2023-05-29T00:57:26;101597.81;;;20.17;47.25
62600;BME280;48671;48.922;2.346;2023-05-29T00:59:52;101590.84;;;20.16;48.06
62600;BME280;48671;48.922;2.346;2023-05-29T01:02:18;101573.34;;;20.00;47.84
62600;BME280;48671;48.922;2.346;2023-05-29T01:04:45;101575.06;;;20.01;47.73
62600;BME280;48671;48.922;2.346;2023-05-29T01:07:10;101596.50;;;20.09;47.37
62600;BME280;48671;48.922;2.346;2023-05-29T01:09:36;101581.84;;;19.91;47.66
62600;BME280;48671;48.922;2.346;2023-05-29T01:17:31;101592.75;;;19.72;49.06
62600;BME280;48671;48.922;2.346;2023-05-29T01:20:23;101579.94;;;19.66;48.98
62600;BME280;48671;48.922;2.346;2023-05-29T01:28:21;101580.00;;;19.50;49.19
62600;BME280;48671;48.922;2.346;2023-05-29T01:30:49;101598.56;;;19.49;49.26
62600;BME280;48671;48.922;2.346;2023-05-29T01:33:16;101584.16;;;19.40;49.66
62600;BME280;48671;48.922;2.346;2023-05-29T01:35:41;101574.38;;;19.28;49.57
62600;BME280;48671;48.922;2.346;2023-05-29T01:38:06;101571.06;;;19.24;49.48
62600;BME280;48671;48.922;2.346;2023-05-29T01:40:32;101581.72;;;19.08;50.09
62600;BME280;48671;48.922;2.346;2023-05-29T01:42:57;101585.38;;;19.06;49.80
62600;BME280;48671;48.922;2.346;2023-05-29T01:45:23;101584.72;;;19.02;50.92
62600;BME280;48671;48.922;2.346;2023-05-29T01:47:48;101576.25;;;18.97;50.73
62600;BME280;48671;48.922;2.346;2023-05-29T01:50:17;101593.47;;;19.03;50.11
62600;BME280;48671;48.922;2.346;2023-05-29T01:52:43;101581.03;;;18.90;50.42
62600;BME280;48671;48.922;2.346;2023-05-29T01:55:10;101574.06;;;18.89;50.26
62600;BME280;48671;48.922;2.346;2023-05-29T01:57:36;101599.50;;;18.90;50.65
62600;BME280;48671;48.922;2.346;2023-05-29T02:00:03;101583.94;;;18.86;50.10
62600;BME280;48671;48.922;2.346;2023-05-29T02:02:38;101583.63;;;18.76;50.90
62600;BME280;48671;48.922;2.346;2023-05-29T02:05:08;101583.03;;;18.71;50.59
62600;BME280;48671;48.922;2.346;2023-05-29T02:07:34;101587.81;;;18.64;50.51
62600;BME280;48671;48.922;2.346;2023-05-29T02:10:02;101581.13;;;18.59;51.19
62600;BME280;48671;48.922;2.346;2023-05-29T02:12:28;101589.88;;;18.59;51.00
62600;BME280;48671;48.922;2.346;2023-05-29T02:14:53;101594.00;;;18.63;51.30
62600;BME280;48671;48.922;2.346;2023-05-29T02:17:19;101607.19;;;18.63;51.61
62600;BME280;48671;48.922;2.346;2023-05-29T02:19:44;101587.94;;;18.47;51.44
62600;BME280;48671;48.922;2.346;2023-05-29T02:22:09;101590.56;;;18.47;51.95
62600;BME280;48671;48.922;2.346;2023-05-29T02:24:35;101580.22;;;18.44;51.66
62600;BME280;48671;48.922;2.346;2023-05-29T02:27:00;101592.53;;;18.43;51.82
62600;BME280;48671;48.922;2.346;2023-05-29T02:29:26;101588.81;;;18.47;51.51
62600;BME280;48671;48.922;2.346;2023-05-29T02:31:51;101591.53;;;18.46;51.95
62600;BME280;48671;48.922;2.346;2023-05-29T02:34:16;101586.09;;;18.33;52.54
62600;BME280;48671;48.922;2.346;2023-05-29T02:36:42;101585.00;;;18.37;52.43
62600;BME280;48671;48.922;2.346;2023-05-29T02:39:07;101580.34;;;18.27;52.59
62600;BME280;48671;48.922;2.346;2023-05-29T02:41:32;101589.25;;;18.24;52.13
62600;BME280;48671;48.922;2.346;2023-05-29T02:43:58;101589.53;;;18.19;52.76
62600;BME280;48671;48.922;2.346;2023-05-29T02:46:23;101605.34;;;18.19;52.81
62600;BME280;48671;48.922;2.346;2023-05-29T02:48:48;101600.25;;;18.16;52.42
62600;BME280;48671;48.922;2.346;2023-05-29T02:51:14;101602.88;;;18.16;53.54
62600;BME280;48671;48.922;2.346;2023-05-29T02:53:39;101597.44;;;18.04;53.26
62600;BME280;48671;48.922;2.346;2023-05-29T02:56:06;101602.38;;;18.10;53.18
62600;BME280;48671;48.922;2.346;2023-05-29T02:58:32;101605.78;;;18.12;52.36
62600;BME280;48671;48.922;2.346;2023-05-29T03:00:58;101603.22;;;18.10;52.80
62600;BME280;48671;48.922;2.346;2023-05-29T03:03:23;101581.81;;;18.00;53.13
62600;BME280;48671;48.922;2.346;2023-05-29T03:05:48;101603.72;;;18.01;52.93
62600;BME280;48671;48.922;2.346;2023-05-29T03:08:14;101605.94;;;17.93;53.48
62600;BME280;48671;48.922;2.346;2023-05-29T03:10:39;101616.47;;;17.93;53.81
62600;BME280;48671;48.922;2.346;2023-05-29T03:13:06;101612.13;;;17.92;53.59
62600;BME280;48671;48.922;2.346;2023-05-29T03:15:31;101597.63;;;17.85;53.46
62600;BME280;48671;48.922;2.346;2023-05-29T03:17:56;101608.97;;;17.85;53.54
62600;BME280;48671;48.922;2.346;2023-05-29T03:20:22;101605.97;;;17.75;53.81
62600;BME280;48671;48.922;2.346;2023-05-29T03:22:47;101617.63;;;17.71;53.89
62600;BME280;48671;48.922;2.346;2023-05-29T03:25:12;101617.03;;;17.66;54.21
62600;BME280;48671;48.922;2.346;2023-05-29T03:27:38;101618.09;;;17.62;54.40
62600;BME280;48671;48.922;2.346;2023-05-29T03:30:03;101618.53;;;17.54;55.26
62600;BME280;48671;48.922;2.346;2023-05-29T03:32:29;101618.31;;;17.42;55.07
62600;BME280;48671;48.922;2.346;2023-05-29T03:34:55;101627.91;;;17.43;54.93
62600;BME280;48671;48.922;2.346;2023-05-29T03:37:21;101628.16;;;17.38;55.91
62600;BME280;48671;48.922;2.346;2023-05-29T03:39:46;101618.59;;;17.37;54.96
62600;BME280;48671;48.922;2.346;2023-05-29T03:42:12;101631.06;;;17.34;55.22
62600;BME280;48671;48.922;2.346;2023-05-29T03:44:38;101626.84;;;17.29;55.55
62600;BME280;48671;48.922;2.346;2023-05-29T03:47:03;101618.84;;;17.15;55.20
62600;BME280;48671;48.922;2.346;2023-05-29T03:49:29;101642.03;;;17.24;55.98
62600;BME280;48671;48.922;2.346;2023-05-29T03:51:54;101619.94;;;17.11;55.97
62600;BME280;48671;48.922;2.346;2023-05-29T03:54:19;101644.66;;;17.24;55.91
62600;BME280;48671;48.922;2.346;2023-05-29T03:56:45;101629.91;;;17.22;54.67
62600;BME280;48671;48.922;2.346;2023-05-29T03:59:10;101631.00;;;17.18;56.06
62600;BME280;48671;48.922;2.346;2023-05-29T04:01:36;101626.75;;;17.15;55.95
62600;BME280;48671;48.922;2.346;2023-05-29T04:04:01;101636.25;;;17.18;56.04
62600;BME280;48671;48.922;2.346;2023-05-29T04:06:27;101641.50;;;17.18;55.63
62600;BME280;48671;48.922;2.346;2023-05-29T04:08:52;101638.25;;;17.13;55.48
62600;BME280;48671;48.922;2.346;2023-05-29T04:11:18;101647.25;;;17.08;56.55
62600;BME280;48671;48.922;2.346;2023-05-29T04:13:46;101648.38;;;17.03;56.11
62600;BME280;48671;48.922;2.346;2023-05-29T04:16:12;101656.13;;;17.06;56.35
62600;BME280;48671;48.922;2.346;2023-05-29T04:18:37;101652.66;;;17.05;56.48
62600;BME280;48671;48.922;2.346;2023-05-29T04:21:03;101673.53;;;17.08;56.18
62600;BME280;48671;48.922;2.346;2023-05-29T04:23:28;101660.00;;;16.99;56.48
62600;BME280;48671;48.922;2.346;2023-05-29T04:25:53;101673.84;;;17.02;56.76
62600;BME280;48671;48.922;2.346;2023-05-29T04:28:19;101661.78;;;16.98;56.80
62600;BME280;48671;48.922;2.346;2023-05-29T04:30:48;101669.28;;;17.06;56.13
62600;BME280;48671;48.922;2.346;2023-05-29T04:33:14;101666.63;;;17.06;55.66
62600;BME280;48671;48.922;2.346;2023-05-29T04:35:40;101683.25;;;17.06;56.74
62600;BME280;48671;48.922;2.346;2023-05-29T04:38:09;101697.03;;;17.12;56.64
62600;BME280;48671;48.922;2.346;2023-05-29T04:40:34;101692.94;;;17.06;56.40
62600;BME280;48671;48.922;2.346;2023-05-29T04:43:02;101707.25;;;17.00;57.36
62600;BME280;48671;48.922;2.346;2023-05-29T04:45:27;101689.38;;;16.90;56.84
62600;BME280;48671;48.922;2.346;2023-05-29T04:47:53;101703.31;;;16.92;57.23
62600;BME280;48671;48.922;2.346;2023-05-29T04:50:22;101707.56;;;16.94;57.50
62600;BME280;48671;48.922;2.346;2023-05-29T04:52:48;101709.31;;;16.94;57.46
62600;BME280;48671;48.922;2.346;2023-05-29T04:55:14;101706.69;;;16.94;57.34
62600;BME280;48671;48.922;2.346;2023-05-29T04:57:39;101719.72;;;17.14;56.76
62600;BME280;48671;48.922;2.346;2023-05-29T05:00:06;101704.28;;;17.06;57.25
62600;BME280;48671;48.922;2.346;2023-05-29T05:02:34;101722.34;;;17.14;56.54
62600;BME280;48671;48.922;2.346;2023-05-29T05:04:59;101717.84;;;17.16;57.38
62600;BME280;48671;48.922;2.346;2023-05-29T05:07:25;101710.88;;;17.15;57.28
62600;BME280;48671;48.922;2.346;2023-05-29T05:09:50;101702.06;;;17.16;56.89
62600;BME280;48671;48.922;2.346;2023-05-29T05:12:16;101702.94;;;17.17;56.89
62600;BME280;48671;48.922;2.346;2023-05-29T05:14:41;101700.59;;;17.11;57.14
62600;BME280;48671;48.922;2.346;2023-05-29T05:17:06;101688.91;;;16.99;57.43
62600;BME280;48671;48.922;2.346;2023-05-29T05:19:32;101713.81;;;17.09;56.70
62600;BME280;48671;48.922;2.346;2023-05-29T05:21:57;101709.50;;;17.08;57.49
62600;BME280;48671;48.922;2.346;2023-05-29T05:24:22;101714.66;;;17.09;57.39
62600;BME280;48671;48.922;2.346;2023-05-29T05:26:48;101735.78;;;17.25;56.96
62600;BME280;48671;48.922;2.346;2023-05-29T05:29:13;101731.31;;;17.27;56.49
62600;BME280;48671;48.922;2.346;2023-05-29T05:31:39;101735.78;;;17.25;56.97
62600;BME280;48671;48.922;2.346;2023-05-29T05:34:04;101731.38;;;17.26;56.90
62600;BME280;48671;48.922;2.346;2023-05-29T05:36:29;101725.66;;;17.18;57.37
62600;BME280;48671;48.922;2.346;2023-05-29T05:38:56;101736.72;;;17.24;57.04
62600;BME280;48671;48.922;2.346;2023-05-29T05:41:21;101738.25;;;17.28;56.72
62600;BME280;48671;48.922;2.346;2023-05-29T05:43:47;101734.25;;;17.21;57.23
62600;BME280;48671;48.922;2.346;2023-05-29T05:46:12;101731.91;;;17.32;56.63
62600;BME280;48671;48.922;2.346;2023-05-29T05:48:39;101738.50;;;17.41;56.56
62600;BME280;48671;48.922;2.346;2023-05-29T05:51:05;101750.19;;;17.53;56.73
62600;BME280;48671;48.922;2.346;2023-05-29T05:53:30;101747.31;;;17.58;56.57
62600;BME280;48671;48.922;2.346;2023-05-29T05:55:56;101752.56;;;17.58;56.14
62600;BME280;48671;48.922;2.346;2023-05-29T05:58:21;101743.81;;;17.57;55.74
62600;BME280;48671;48.922;2.346;2023-05-29T06:00:46;101740.34;;;17.57;56.31
62600;BME280;48671;48.922;2.346;2023-05-29T06:03:12;101750.19;;;17.53;56.27
62600;BME280;48671;48.922;2.346;2023-05-29T06:05:37;101745.13;;;17.48;56.60
62600;BME280;48671;48.922;2.346;2023-05-29T06:08:05;101730.97;;;17.51;56.24
62600;BME280;48671;48.922;2.346;2023-05-29T06:10:31;101749.47;;;17.67;56.65
62600;BME280;48671;48.922;2.346;2023-05-29T06:12:56;101744.72;;;17.73;56.07
62600;BME280;48671;48.922;2.346;2023-05-29T06:15:22;101748.00;;;17.78;56.07
62600;BME280;48671;48.922;2.346;2023-05-29T06:17:47;101740.97;;;17.79;55.87
62600;BME280;48671;48.922;2.346;2023-05-29T06:20:13;101762.19;;;17.92;55.58
62600;BME280;48671;48.922;2.346;2023-05-29T06:22:39;101765.47;;;17.97;55.63
62600;BME280;48671;48.922;2.346;2023-05-29T06:25:04;101760.03;;;18.00;54.77
62600;BME280;48671;48.922;2.346;2023-05-29T06:27:30;101751.13;;;18.02;54.91
62600;BME280;48671;48.922;2.346;2023-05-29T06:29:55;101773.25;;;18.16;55.19
62600;BME280;48671;48.922;2.346;2023-05-29T06:32:21;101754.19;;;18.11;54.67
62600;BME280;48671;48.922;2.346;2023-05-29T06:34:47;101785.31;;;18.20;55.10
62600;BME280;48671;48.922;2.346;2023-05-29T06:37:12;101776.22;;;18.25;55.07
62600;BME280;48671;48.922;2.346;2023-05-29T06:39:37;101781.00;;;18.35;54.51
62600;BME280;48671;48.922;2.346;2023-05-29T06:42:07;101782.19;;;18.45;54.38
62600;BME280;48671;48.922;2.346;2023-05-29T06:44:32;101788.16;;;18.48;54.34
62600;BME280;48671;48.922;2.346;2023-05-29T06:46:57;101781.94;;;18.49;54.44
62600;BME280;48671;48.922;2.346;2023-05-29T06:49:23;101790.44;;;18.55;54.23
62600;BME280;48671;48.922;2.346;2023-05-29T06:51:48;101787.56;;;18.59;53.67
62600;BME280;48671;48.922;2.346;2023-05-29T06:54:13;101789.59;;;18.54;53.83
62600;BME280;48671;48.922;2.346;2023-05-29T06:56:39;101788.31;;;18.61;54.10
62600;BME280;48671;48.922;2.346;2023-05-29T06:59:04;101807.34;;;18.66;53.99
62600;BME280;48671;48.922;2.346;2023-05-29T07:01:30;101795.13;;;18.65;54.32
62600;BME280;48671;48.922;2.346;2023-05-29T07:03:55;101788.91;;;18.66;53.68
62600;BME280;48671;48.922;2.346;2023-05-29T07:06:21;101795.56;;;18.74;53.68
62600;BME280;48671;48.922;2.346;2023-05-29T07:08:46;101800.66;;;18.92;54.00
62600;BME280;48671;48.922;2.346;2023-05-29T07:11:12;101787.13;;;18.99;52.95
62600;BME280;48671;48.922;2.346;2023-05-29T07:13:37;101790.09;;;19.08;53.11
62600;BME280;48671;48.922;2.346;2023-05-29T07:16:02;101800.47;;;19.11;52.90
62600;BME280;48671;48.922;2.346;2023-05-29T07:18:27;101791.59;;;19.12;52.65
62600;BME280;48671;48.922;2.346;2023-05-29T07:20:56;101787.00;;;19.16;52.78
62600;BME280;48671;48.922;2.346;2023-05-29T07:23:21;101791.44;;;19.15;52.73
62600;BME280;48671;48.922;2.346;2023-05-29T07:25:46;101800.78;;;19.21;52.60
62600;BME280;48671;48.922;2.346;2023-05-29T07:28:12;101801.47;;;19.25;52.48
62600;BME280;48671;48.922;2.346;2023-05-29T07:30:37;101794.22;;;19.28;52.60
62600;BME280;48671;48.922;2.346;2023-05-29T07:33:02;101810.97;;;19.43;52.26
62600;BME280;48671;48.922;2.346;2023-05-29T07:35:27;101802.41;;;19.54;52.04
62600;BME280;48671;48.922;2.346;2023-05-29T07:37:53;101802.81;;;19.62;52.14
62600;BME280;48671;48.922;2.346;2023-05-29T07:40:19;101801.41;;;19.71;51.97
62600;BME280;48671;48.922;2.346;2023-05-29T07:42:47;101794.56;;;19.82;51.74
62600;BME280;48671;48.922;2.346;2023-05-29T07:45:13;101805.78;;;20.00;51.54
62600;BME280;48671;48.922;2.346;2023-05-29T07:47:38;101801.09;;;20.05;51.21
62600;BME280;48671;48.922;2.346;2023-05-29T07:50:04;101804.75;;;20.17;50.85
62600;BME280;48671;48.922;2.346;2023-05-29T07:52:31;101802.03;;;20.19;51.08
62600;BME280;48671;48.922;2.346;2023-05-29T07:54:56;101800.63;;;20.27;50.19
62600;BME280;48671;48.922;2.346;2023-05-29T07:57:22;101810.78;;;20.33;50.72
62600;BME280;48671;48.922;2.346;2023-05-29T07:59:48;101802.47;;;20.40;50.10
62600;BME280;48671;48.922;2.346;2023-05-29T08:02:16;101798.41;;;20.48;50.37
62600;BME280;48671;48.922;2.346;2023-05-29T08:04:42;101799.75;;;20.55;49.50
62600;BME280;48671;48.922;2.346;2023-05-29T08:07:07;101798.91;;;20.55;50.13
62600;BME280;48671;48.922;2.346;2023-05-29T08:09:32;101802.56;;;20.67;49.52
62600;BME280;48671;48.922;2.346;2023-05-29T08:11:58;101797.16;;;20.68;49.26
62600;BME280;48671;48.922;2.346;2023-05-29T08:14:25;101796.78;;;20.74;49.84
62600;BME280;48671;48.922;2.346;2023-05-29T08:16:50;101803.38;;;20.81;49.46
62600;BME280;48671;48.922;2.346;2023-05-29T08:19:16;101801.53;;;20.96;49.06
62600;BME280;48671;48.922;2.346;2023-05-29T08:21:41;101802.84;;;21.03;48.84
62600;BME280;48671;48.922;2.346;2023-05-29T08:24:07;101786.41;;;20.98;48.78
62600;BME280;48671;48.922;2.346;2023-05-29T08:26:34;101796.56;;;21.04;48.65
62600;BME280;48671;48.922;2.346;2023-05-29T08:29:00;101797.78;;;21.13;48.98
62600;BME280;48671;48.922;2.346;2023-05-29T08:31:25;101795.38;;;21.23;48.43
62600;BME280;48671;48.922;2.346;2023-05-29T08:33:52;101796.28;;;21.36;48.62
62600;BME280;48671;48.922;2.346;2023-05-29T08:36:17;101806.25;;;21.45;48.18
62600;BME280;48671;48.922;2.346;2023-05-29T08:38:43;101806.56;;;21.54;47.79
62600;BME280;48671;48.922;2.346;2023-05-29T08:41:21;101796.00;;;21.54;47.62
62600;BME280;48671;48.922;2.346;2023-05-29T08:43:48;101811.03;;;21.53;47.78
62600;BME280;48671;48.922;2.346;2023-05-29T08:46:18;101816.31;;;21.53;47.21
62600;BME280;48671;48.922;2.346;2023-05-29T08:48:47;101816.75;;;21.60;47.23
62600;BME280;48671;48.922;2.346;2023-05-29T08:51:14;101802.97;;;21.67;47.18
62600;BME280;48671;48.922;2.346;2023-05-29T08:53:40;101799.00;;;21.74;46.85
62600;BME280;48671;48.922;2.346;2023-05-29T08:56:07;101799.50;;;21.80;46.90
62600;BME280;48671;48.922;2.346;2023-05-29T08:58:33;101800.69;;;21.88;46.91
62600;BME280;48671;48.922;2.346;2023-05-29T09:00:59;101801.09;;;21.95;46.51
62600;BME280;48671;48.922;2.346;2023-05-29T09:03:25;101795.66;;;22.09;46.38
62600;BME280;48671;48.922;2.346;2023-05-29T09:05:50;101806.94;;;22.26;46.57
62600;BME280;48671;48.922;2.346;2023-05-29T09:08:16;101806.50;;;22.32;46.07
62600;BME280;48671;48.922;2.346;2023-05-29T09:10:42;101808.50;;;22.41;46.04
62600;BME280;48671;48.922;2.346;2023-05-29T09:13:09;101799.56;;;22.42;45.54
62600;BME280;48671;48.922;2.346;2023-05-29T09:15:35;101797.75;;;22.42;45.62
62600;BME280;48671;48.922;2.346;2023-05-29T09:18:02;101810.16;;;22.55;45.70
62600;BME280;48671;48.922;2.346;2023-05-29T09:20:27;101814.22;;;22.72;45.12
62600;BME280;48671;48.922;2.346;2023-05-29T09:25:23;101807.91;;;22.85;44.27
62600;BME280;48671;48.922;2.346;2023-05-29T09:28:00;101804.19;;;22.88;44.58
62600;BME280;48671;48.922;2.346;2023-05-29T09:32:59;101811.94;;;23.15;44.74
62600;BME280;48671;48.922;2.346;2023-05-29T09:35:25;101805.34;;;23.21;44.37
62600;BME280;48671;48.922;2.346;2023-05-29T09:37:50;101812.38;;;23.22;43.78
62600;BME280;48671;48.922;2.346;2023-05-29T09:40:16;101811.09;;;23.14;43.98
62600;BME280;48671;48.922;2.346;2023-05-29T09:42:41;101798.94;;;23.12;44.38
62600;BME280;48671;48.922;2.346;2023-05-29T09:45:07;101803.88;;;23.17;44.33
62600;BME280;48671;48.922;2.346;2023-05-29T09:47:34;101801.03;;;23.31;44.14
62600;BME280;48671;48.922;2.346;2023-05-29T09:50:00;101795.53;;;23.45;44.04
62600;BME280;48671;48.922;2.346;2023-05-29T09:52:26;101789.41;;;23.56;43.84
62600;BME280;48671;48.922;2.346;2023-05-29T09:54:55;101798.44;;;23.53;43.59
62600;BME280;48671;48.922;2.346;2023-05-29T09:57:22;101806.63;;;23.74;43.69
62600;BME280;48671;48.922;2.346;2023-05-29T09:59:49;101801.91;;;23.89;42.94
62600;BME280;48671;48.922;2.346;2023-05-29T10:02:16;101807.72;;;24.05;42.69
62600;BME280;48671;48.922;2.346;2023-05-29T10:04:42;101805.66;;;24.09;42.37
62600;BME280;48671;48.922;2.346;2023-05-29T10:07:35;101813.41;;;24.12;42.51
62600;BME280;48671;48.922;2.346;2023-05-29T10:10:04;101811.72;;;24.11;42.05
62600;BME280;48671;48.922;2.346;2023-05-29T10:12:44;101795.63;;;24.13;42.25
62600;BME280;48671;48.922;2.346;2023-05-29T10:15:14;101802.19;;;24.20;42.23
62600;BME280;48671;48.922;2.346;2023-05-29T10:18:03;101803.84;;;24.32;42.23
62600;BME280;48671;48.922;2.346;2023-05-29T10:20:31;101794.78;;;24.46;42.03
62600;BME280;48671;48.922;2.346;2023-05-29T10:23:00;101794.16;;;24.65;41.34
62600;BME280;48671;48.922;2.346;2023-05-29T10:25:27;101801.53;;;24.72;41.55
62600;BME280;48671;48.922;2.346;2023-05-29T10:27:55;101795.19;;;24.85;41.17
62600;BME280;48671;48.922;2.346;2023-05-29T10:30:24;101787.97;;;24.75;40.67
62600;BME280;48671;48.922;2.346;2023-05-29T10:33:04;101781.09;;;24.73;40.91
62600;BME280;48671;48.922;2.346;2023-05-29T10:35:51;101778.16;;;24.76;40.48
62600;BME280;48671;48.922;2.346;2023-05-29T10:38:19;101780.69;;;24.89;41.02
62600;BME280;48671;48.922;2.346;2023-05-29T10:40:46;101773.72;;;24.97;40.14
62600;BME280;48671;48.922;2.346;2023-05-29T10:43:44;101788.66;;;24.89;40.53
62600;BME280;48671;48.922;2.346;2023-05-29T10:46:09;101778.84;;;24.89;40.79
62600;BME280;48671;48.922;2.346;2023-05-29T10:48:39;101779.44;;;24.93;40.53
62600;BME280;48671;48.922;2.346;2023-05-29T10:51:06;101781.19;;;25.04;41.08
62600;BME280;48671;48.922;2.346;2023-05-29T10:53:33;101768.72;;;25.15;39.87
62600;BME280;48671;48.922;2.346;2023-05-29T10:55:59;101769.41;;;25.17;40.37
62600;BME280;48671;48.922;2.346;2023-05-29T10:58:26;101771.44;;;25.46;39.98
62600;BME280;48671;48.922;2.346;2023-05-29T11:00:53;101784.44;;;25.60;39.68
62600;BME280;48671;48.922;2.346;2023-05-29T11:03:22;101777.47;;;25.69;39.58
62600;BME280;48671;48.922;2.346;2023-05-29T11:05:57;101779.16;;;25.70;38.91
62600;BME280;48671;48.922;2.346;2023-05-29T11:08:57;101779.16;;;25.70;39.80
62600;BME280;48671;48.922;2.346;2023-05-29T11:13:56;101763.31;;;25.99;38.84
62600;BME280;48671;48.922;2.346;2023-05-29T11:18:51;101765.44;;;25.96;39.20
62600;BME280;48671;48.922;2.346;2023-05-29T11:23:47;101767.88;;;26.08;38.37
62600;BME280;48671;48.922;2.346;2023-05-29T11:26:13;101759.78;;;26.20;38.64
62600;BME280;48671;48.922;2.346;2023-05-29T11:28:39;101759.38;;;26.34;38.10
62600;BME280;48671;48.922;2.346;2023-05-29T11:31:08;101756.06;;;26.51;38.05
62600;BME280;48671;48.922;2.346;2023-05-29T11:33:38;101753.28;;;26.63;37.39
62600;BME280;48671;48.922;2.346;2023-05-29T11:36:05;101756.38;;;26.68;37.24
62600;BME280;48671;48.922;2.346;2023-05-29T11:38:31;101751.88;;;26.78;37.95
62600;BME280;48671;48.922;2.346;2023-05-29T11:40:57;101750.75;;;26.90;37.49
62600;BME280;48671;48.922;2.346;2023-05-29T11:43:24;101748.09;;;27.00;37.32
62600;BME280;48671;48.922;2.346;2023-05-29T11:45:49;101745.69;;;27.06;37.53
62600;BME280;48671;48.922;2.346;2023-05-29T11:48:15;101733.47;;;27.14;37.42
62600;BME280;48671;48.922;2.346;2023-05-29T11:50:40;101743.31;;;27.23;36.90
62600;BME280;48671;48.922;2.346;2023-05-29T11:53:06;101745.41;;;27.29;36.63
62600;BME280;48671;48.922;2.346;2023-05-29T11:55:35;101734.69;;;27.39;35.98
62600;BME280;48671;48.922;2.346;2023-05-29T11:58:02;101750.28;;;27.53;36.33
62600;BME280;48671;48.922;2.346;2023-05-29T12:00:33;101753.03;;;27.71;36.07
62600;BME280;48671;48.922;2.346;2023-05-29T12:02:59;101743.72;;;27.85;35.59
62600;BME280;48671;48.922;2.346;2023-05-29T12:05:29;101734.69;;;27.86;35.48
62600;BME280;48671;48.922;2.346;2023-05-29T12:07:54;101733.41;;;27.99;35.54
62600;BME280;48671;48.922;2.346;2023-05-29T12:10:26;101739.25;;;28.13;35.52
62600;BME280;48671;48.922;2.346;2023-05-29T12:12:53;101735.81;;;28.20;35.13
62600;BME280;48671;48.922;2.346;2023-05-29T12:15:20;101740.31;;;28.20;35.27
62600;BME280;48671;48.922;2.346;2023-05-29T12:17:47;101717.91;;;28.21;34.04
62600;BME280;48671;48.922;2.346;2023-05-29T12:20:13;101729.25;;;28.33;34.51
62600;BME280;48671;48.922;2.346;2023-05-29T12:22:41;101724.34;;;28.28;34.03
62600;BME280;48671;48.922;2.346;2023-05-29T12:25:08;101738.03;;;28.25;34.56
62600;BME280;48671;48.922;2.346;2023-05-29T12:27:34;101727.25;;;28.35;34.66
62600;BME280;48671;48.922;2.346;2023-05-29T12:30:10;101731.38;;;28.57;34.47
62600;BME280;48671;48.922;2.346;2023-05-29T12:32:37;101719.03;;;28.64;33.50
62600;BME280;48671;48.922;2.346;2023-05-29T12:35:23;101726.69;;;28.77;33.89
62600;BME280;48671;48.922;2.346;2023-05-29T12:37:53;101730.97;;;28.87;33.35
62600;BME280;48671;48.922;2.346;2023-05-29T12:40:25;101728.84;;;29.09;33.49
62600;BME280;48671;48.922;2.346;2023-05-29T12:42:56;101735.88;;;29.36;32.28
62600;BME280;48671;48.922;2.346;2023-05-29T12:45:24;101726.88;;;29.37;32.13
62600;BME280;48671;48.922;2.346;2023-05-29T12:50:31;101732.84;;;29.31;32.60
62600;BME280;48671;48.922;2.346;2023-05-29T12:55:28;101719.56;;;29.47;32.18
62600;BME280;48671;48.922;2.346;2023-05-29T12:57:54;101728.78;;;29.53;31.09
62600;BME280;48671;48.922;2.346;2023-05-29T13:00:20;101733.00;;;29.55;31.41
62600;BME280;48671;48.922;2.346;2023-05-29T13:02:47;101727.84;;;29.62;31.34
62600;BME280;48671;48.922;2.346;2023-05-29T13:05:13;101727.91;;;29.70;30.91
62600;BME280;48671;48.922;2.346;2023-05-29T13:07:38;101722.03;;;29.67;31.17
62600;BME280;48671;48.922;2.346;2023-05-29T13:10:05;101722.69;;;29.69;31.49
62600;BME280;48671;48.922;2.346;2023-05-29T13:12:30;101724.47;;;29.86;30.79
62600;BME280;48671;48.922;2.346;2023-05-29T13:14:56;101732.38;;;29.96;30.34
62600;BME280;48671;48.922;2.346;2023-05-29T13:17:21;101711.78;;;30.04;30.70